sensor_id;sensor_type;location;lat;lon;timestamp;temperature;humidity
33863;DHT22;20158;51.436;-2.742;2023-02-18T00:01:14;13.00;74.90
33863;DHT22;20158;51.436;-2.742;2023-02-18T00:03:40;12.90;74.70
33863;DHT22;20158;51.436;-2.742;2023-02-18T00:06:28;12.90;74.80
33863;DHT22;20158;51.436;-2.742;2023-02-18T00:08:55;12.90;74.80
33863;DHT22;20158;51.436;-2.742;2023-02-18T00:11:23;12.90;74.80
33863;DHT22;20158;51.436;-2.742;2023-02-18T00:13:54;12.90;74.80
33863;DHT22;20158;51.436;-2.742;2023-02-18T00:16:21;12.90;74.80
33863;DHT22;20158;51.436;-2.742;2023-02-18T00:18:48;12.90;74.80
33863;DHT22;20158;51.436;-2.742;2023-02-18T00:21:14;12.90;74.80
33863;DHT22;20158;51.436;-2.742;2023-02-18T00:23:41;12.80;74.60
33863;DHT22;20158;51.436;-2.742;2023-02-18T00:26:09;12.80;74.60
33863;DHT22;20158;51.436;-2.742;2023-02-18T00:28:38;12.80;74.60
33863;DHT22;20158;51.436;-2.742;2023-02-18T00:31:25;12.80;74.60
33863;DHT22;20158;51.436;-2.742;2023-02-18T00:33:52;12.80;74.60
33863;DHT22;20158;51.436;-2.742;2023-02-18T00:36:20;12.80;74.50
33863;DHT22;20158;51.436;-2.742;2023-02-18T00:38:55;12.80;74.50
33863;DHT22;20158;51.436;-2.742;2023-02-18T00:41:23;12.80;74.50
33863;DHT22;20158;51.436;-2.742;2023-02-18T00:43:50;12.80;74.40
33863;DHT22;20158;51.436;-2.742;2023-02-18T00:46:19;12.80;74.50
33863;DHT22;20158;51.436;-2.742;2023-02-18T00:48:45;12.70;74.20
33863;DHT22;20158;51.436;-2.742;2023-02-18T00:51:11;12.70;74.20
33863;DHT22;20158;51.436;-2.742;2023-02-18T00:53:38;12.70;74.20
33863;DHT22;20158;51.436;-2.742;2023-02-18T00:56:05;12.70;74.20
33863;DHT22;20158;51.436;-2.742;2023-02-18T00:58:31;12.70;74.20
33863;DHT22;20158;51.436;-2.742;2023-02-18T01:00:58;12.70;74.20
33863;DHT22;20158;51.436;-2.742;2023-02-18T01:03:24;12.70;74.10
33863;DHT22;20158;51.436;-2.742;2023-02-18T01:05:51;12.70;74.10
33863;DHT22;20158;51.436;-2.742;2023-02-18T01:08:18;12.70;74.10
33863;DHT22;20158;51.436;-2.742;2023-02-18T01:10:46;12.70;74.00
33863;DHT22;20158;51.436;-2.742;2023-02-18T01:13:14;12.70;74.00
33863;DHT22;20158;51.436;-2.742;2023-02-18T01:15:41;12.70;74.00
33863;DHT22;20158;51.436;-2.742;2023-02-18T01:18:09;12.70;73.90
33863;DHT22;20158;51.436;-2.742;2023-02-18T01:20:38;12.70;73.90
33863;DHT22;20158;51.436;-2.742;2023-02-18T01:23:04;12.70;73.80
33863;DHT22;20158;51.436;-2.742;2023-02-18T01:25:30;12.60;73.60
33863;DHT22;20158;51.436;-2.742;2023-02-18T01:27:57;12.70;73.70
33863;DHT22;20158;51.436;-2.742;2023-02-18T01:30:23;12.70;73.60
33863;DHT22;20158;51.436;-2.742;2023-02-18T01:32:49;12.70;73.60
33863;DHT22;20158;51.436;-2.742;2023-02-18T01:35:17;12.70;73.50
33863;DHT22;20158;51.436;-2.742;2023-02-18T01:37:45;12.70;73.50
33863;DHT22;20158;51.436;-2.742;2023-02-18T01:40:16;12.60;73.20
33863;DHT22;20158;51.436;-2.742;2023-02-18T01:42:42;12.60;73.10
33863;DHT22;20158;51.436;-2.742;2023-02-18T01:50:32;12.60;73.00
33863;DHT22;20158;51.436;-2.742;2023-02-18T01:53:00;12.60;72.90
33863;DHT22;20158;51.436;-2.742;2023-02-18T01:55:30;12.60;72.90
33863;DHT22;20158;51.436;-2.742;2023-02-18T01:57:56;12.60;72.80
33863;DHT22;20158;51.436;-2.742;2023-02-18T02:00:22;12.60;72.80
33863;DHT22;20158;51.436;-2.742;2023-02-18T02:02:51;12.60;72.80
33863;DHT22;20158;51.436;-2.742;2023-02-18T02:05:18;12.60;72.80
33863;DHT22;20158;51.436;-2.742;2023-02-18T02:07:47;12.60;72.80
33863;DHT22;20158;51.436;-2.742;2023-02-18T02:10:14;12.60;72.80
33863;DHT22;20158;51.436;-2.742;2023-02-18T02:15:35;12.60;72.70
33863;DHT22;20158;51.436;-2.742;2023-02-18T02:18:17;12.60;72.70
33863;DHT22;20158;51.436;-2.742;2023-02-18T02:35:08;12.60;72.50
33863;DHT22;20158;51.436;-2.742;2023-02-18T02:37:44;12.60;72.50
33863;DHT22;20158;51.436;-2.742;2023-02-18T02:43:38;12.50;72.30
33863;DHT22;20158;51.436;-2.742;2023-02-18T02:46:11;12.50;72.30
33863;DHT22;20158;51.436;-2.742;2023-02-18T02:51:44;12.50;72.30
33863;DHT22;20158;51.436;-2.742;2023-02-18T02:56:42;12.60;72.50
33863;DHT22;20158;51.436;-2.742;2023-02-18T02:59:12;12.60;72.50
33863;DHT22;20158;51.436;-2.742;2023-02-18T03:13:15;12.60;72.50
33863;DHT22;20158;51.436;-2.742;2023-02-18T03:15:38;12.60;72.50
33863;DHT22;20158;51.436;-2.742;2023-02-18T03:18:19;12.60;72.50
33863;DHT22;20158;51.436;-2.742;2023-02-18T03:21:05;12.50;72.30
33863;DHT22;20158;51.436;-2.742;2023-02-18T03:23:38;12.60;72.50
33863;DHT22;20158;51.436;-2.742;2023-02-18T03:26:05;12.60;72.50
33863;DHT22;20158;51.436;-2.742;2023-02-18T03:28:34;12.50;72.30
33863;DHT22;20158;51.436;-2.742;2023-02-18T03:31:08;12.50;72.30
33863;DHT22;20158;51.436;-2.742;2023-02-18T03:33:44;12.50;72.30
33863;DHT22;20158;51.436;-2.742;2023-02-18T03:36:11;12.50;72.30
33863;DHT22;20158;51.436;-2.742;2023-02-18T03:41:05;12.50;72.30
33863;DHT22;20158;51.436;-2.742;2023-02-18T03:43:32;12.50;72.30
33863;DHT22;20158;51.436;-2.742;2023-02-18T03:45:59;12.50;72.30
33863;DHT22;20158;51.436;-2.742;2023-02-18T03:48:25;12.50;72.80
33863;DHT22;20158;51.436;-2.742;2023-02-18T03:50:51;12.50;72.30
33863;DHT22;20158;51.436;-2.742;2023-02-18T03:53:17;12.50;72.30
33863;DHT22;20158;51.436;-2.742;2023-02-18T03:55:43;12.50;72.30
33863;DHT22;20158;51.436;-2.742;2023-02-18T03:58:09;12.50;72.40
33863;DHT22;20158;51.436;-2.742;2023-02-18T04:00:35;12.50;72.40
33863;DHT22;20158;51.436;-2.742;2023-02-18T04:03:01;12.50;72.40
33863;DHT22;20158;51.436;-2.742;2023-02-18T04:05:27;12.50;72.40
33863;DHT22;20158;51.436;-2.742;2023-02-18T04:07:53;12.50;72.50
33863;DHT22;20158;51.436;-2.742;2023-02-18T04:10:19;12.50;72.40
33863;DHT22;20158;51.436;-2.742;2023-02-18T04:12:47;12.50;72.50
33863;DHT22;20158;51.436;-2.742;2023-02-18T04:15:13;12.50;72.50
33863;DHT22;20158;51.436;-2.742;2023-02-18T04:17:39;12.50;72.50
33863;DHT22;20158;51.436;-2.742;2023-02-18T04:20:05;12.50;72.50
33863;DHT22;20158;51.436;-2.742;2023-02-18T04:22:32;12.40;72.40
33863;DHT22;20158;51.436;-2.742;2023-02-18T04:24:58;12.40;72.40
33863;DHT22;20158;51.436;-2.742;2023-02-18T04:27:25;12.40;72.40
33863;DHT22;20158;51.436;-2.742;2023-02-18T04:29:51;12.40;72.40
33863;DHT22;20158;51.436;-2.742;2023-02-18T04:32:17;12.40;72.40
33863;DHT22;20158;51.436;-2.742;2023-02-18T04:34:43;12.40;72.50
33863;DHT22;20158;51.436;-2.742;2023-02-18T04:37:09;12.40;72.50
33863;DHT22;20158;51.436;-2.742;2023-02-18T04:39:35;12.40;72.50
33863;DHT22;20158;51.436;-2.742;2023-02-18T04:42:01;12.40;72.50
33863;DHT22;20158;51.436;-2.742;2023-02-18T04:44:27;12.40;72.50
33863;DHT22;20158;51.436;-2.742;2023-02-18T04:46:53;12.40;72.50
33863;DHT22;20158;51.436;-2.742;2023-02-18T04:49:18;12.40;72.50
33863;DHT22;20158;51.436;-2.742;2023-02-18T04:51:44;12.40;72.50
33863;DHT22;20158;51.436;-2.742;2023-02-18T04:54:10;12.40;72.50
33863;DHT22;20158;51.436;-2.742;2023-02-18T04:56:36;12.40;72.50
33863;DHT22;20158;51.436;-2.742;2023-02-18T04:59:02;12.40;72.40
33863;DHT22;20158;51.436;-2.742;2023-02-18T05:01:28;12.50;72.60
33863;DHT22;20158;51.436;-2.742;2023-02-18T05:03:54;12.40;72.40
33863;DHT22;20158;51.436;-2.742;2023-02-18T05:06:20;12.50;72.60
33863;DHT22;20158;51.436;-2.742;2023-02-18T05:08:46;12.50;72.60
33863;DHT22;20158;51.436;-2.742;2023-02-18T05:11:12;12.50;72.60
33863;DHT22;20158;51.436;-2.742;2023-02-18T05:13:37;12.40;72.40
33863;DHT22;20158;51.436;-2.742;2023-02-18T05:16:04;12.50;72.50
33863;DHT22;20158;51.436;-2.742;2023-02-18T05:18:29;12.40;72.30
33863;DHT22;20158;51.436;-2.742;2023-02-18T05:20:55;12.50;72.50
33863;DHT22;20158;51.436;-2.742;2023-02-18T05:23:21;12.50;72.50
33863;DHT22;20158;51.436;-2.742;2023-02-18T05:25:47;12.50;72.60
33863;DHT22;20158;51.436;-2.742;2023-02-18T05:28:13;12.50;72.60
33863;DHT22;20158;51.436;-2.742;2023-02-18T05:30:39;12.50;72.60
33863;DHT22;20158;51.436;-2.742;2023-02-18T05:33:05;12.50;72.60
33863;DHT22;20158;51.436;-2.742;2023-02-18T05:35:31;12.50;72.70
33863;DHT22;20158;51.436;-2.742;2023-02-18T05:37:57;12.50;72.70
33863;DHT22;20158;51.436;-2.742;2023-02-18T05:40:23;12.50;72.70
33863;DHT22;20158;51.436;-2.742;2023-02-18T05:42:49;12.60;72.90
33863;DHT22;20158;51.436;-2.742;2023-02-18T05:45:15;12.50;72.70
33863;DHT22;20158;51.436;-2.742;2023-02-18T05:47:40;12.60;73.00
33863;DHT22;20158;51.436;-2.742;2023-02-18T05:50:07;12.60;73.00
33863;DHT22;20158;51.436;-2.742;2023-02-18T05:52:33;12.50;72.90
33863;DHT22;20158;51.436;-2.742;2023-02-18T05:54:59;12.50;72.90
33863;DHT22;20158;51.436;-2.742;2023-02-18T05:57:25;12.60;73.10
33863;DHT22;20158;51.436;-2.742;2023-02-18T05:59:51;12.60;73.10
33863;DHT22;20158;51.436;-2.742;2023-02-18T06:02:17;12.60;73.20
33863;DHT22;20158;51.436;-2.742;2023-02-18T06:04:43;12.60;73.20
33863;DHT22;20158;51.436;-2.742;2023-02-18T06:07:08;12.60;73.20
33863;DHT22;20158;51.436;-2.742;2023-02-18T06:09:34;12.60;73.30
33863;DHT22;20158;51.436;-2.742;2023-02-18T06:12:00;12.60;73.30
33863;DHT22;20158;51.436;-2.742;2023-02-18T06:14:26;12.60;73.30
33863;DHT22;20158;51.436;-2.742;2023-02-18T06:16:52;12.60;73.40
33863;DHT22;20158;51.436;-2.742;2023-02-18T06:19:18;12.60;73.40
33863;DHT22;20158;51.436;-2.742;2023-02-18T06:21:44;12.60;73.50
33863;DHT22;20158;51.436;-2.742;2023-02-18T06:24:10;12.60;73.50
33863;DHT22;20158;51.436;-2.742;2023-02-18T06:26:36;12.60;73.50
33863;DHT22;20158;51.436;-2.742;2023-02-18T06:29:02;12.60;73.60
33863;DHT22;20158;51.436;-2.742;2023-02-18T06:31:28;12.60;73.60
33863;DHT22;20158;51.436;-2.742;2023-02-18T06:33:54;12.60;73.70
33863;DHT22;20158;51.436;-2.742;2023-02-18T06:36:20;12.60;73.70
33863;DHT22;20158;51.436;-2.742;2023-02-18T06:38:46;12.60;73.70
33863;DHT22;20158;51.436;-2.742;2023-02-18T06:41:13;12.60;73.80
33863;DHT22;20158;51.436;-2.742;2023-02-18T06:43:40;12.60;73.90
33863;DHT22;20158;51.436;-2.742;2023-02-18T06:46:06;12.60;73.90
33863;DHT22;20158;51.436;-2.742;2023-02-18T06:48:32;12.60;74.00
33863;DHT22;20158;51.436;-2.742;2023-02-18T06:50:58;12.60;74.30
33863;DHT22;20158;51.436;-2.742;2023-02-18T06:53:24;12.60;74.20
33863;DHT22;20158;51.436;-2.742;2023-02-18T06:55:50;12.60;74.90
33863;DHT22;20158;51.436;-2.742;2023-02-18T06:58:16;12.70;75.40
33863;DHT22;20158;51.436;-2.742;2023-02-18T07:00:42;12.90;75.90
33863;DHT22;20158;51.436;-2.742;2023-02-18T07:03:11;13.10;76.20
33863;DHT22;20158;51.436;-2.742;2023-02-18T07:05:37;13.30;76.50
33863;DHT22;20158;51.436;-2.742;2023-02-18T07:08:03;13.40;76.50
33863;DHT22;20158;51.436;-2.742;2023-02-18T07:10:29;13.50;76.70
33863;DHT22;20158;51.436;-2.742;2023-02-18T07:12:55;13.60;76.80
33863;DHT22;20158;51.436;-2.742;2023-02-18T07:15:21;13.70;76.80
33863;DHT22;20158;51.436;-2.742;2023-02-18T07:17:52;13.80;76.90
33863;DHT22;20158;51.436;-2.742;2023-02-18T07:20:19;13.80;76.90
33863;DHT22;20158;51.436;-2.742;2023-02-18T07:22:46;13.80;76.90
33863;DHT22;20158;51.436;-2.742;2023-02-18T07:25:12;13.90;77.00
33863;DHT22;20158;51.436;-2.742;2023-02-18T07:27:39;13.90;77.00
33863;DHT22;20158;51.436;-2.742;2023-02-18T07:30:05;13.90;77.10
33863;DHT22;20158;51.436;-2.742;2023-02-18T07:32:31;13.80;76.90
33863;DHT22;20158;51.436;-2.742;2023-02-18T07:34:57;13.90;77.20
33863;DHT22;20158;51.436;-2.742;2023-02-18T07:37:23;13.80;77.00
33863;DHT22;20158;51.436;-2.742;2023-02-18T07:39:49;13.80;77.10
33863;DHT22;20158;51.436;-2.742;2023-02-18T07:42:15;13.80;77.10
33863;DHT22;20158;51.436;-2.742;2023-02-18T07:44:41;13.80;77.10
33863;DHT22;20158;51.436;-2.742;2023-02-18T07:47:09;13.80;77.10
33863;DHT22;20158;51.436;-2.742;2023-02-18T07:49:35;13.80;77.10
33863;DHT22;20158;51.436;-2.742;2023-02-18T07:52:01;13.80;77.00
33863;DHT22;20158;51.436;-2.742;2023-02-18T07:54:27;13.80;77.00
33863;DHT22;20158;51.436;-2.742;2023-02-18T07:56:53;13.80;77.10
33863;DHT22;20158;51.436;-2.742;2023-02-18T07:59:22;13.80;77.20
33863;DHT22;20158;51.436;-2.742;2023-02-18T08:01:48;13.80;77.10
33863;DHT22;20158;51.436;-2.742;2023-02-18T08:04:14;13.80;77.00
33863;DHT22;20158;51.436;-2.742;2023-02-18T08:06:43;13.70;76.70
33863;DHT22;20158;51.436;-2.742;2023-02-18T08:09:13;13.80;76.90
33863;DHT22;20158;51.436;-2.742;2023-02-18T08:11:40;13.80;76.80
33863;DHT22;20158;51.436;-2.742;2023-02-18T08:14:06;13.70;76.60
33863;DHT22;20158;51.436;-2.742;2023-02-18T08:16:32;13.70;76.60
33863;DHT22;20158;51.436;-2.742;2023-02-18T08:18:59;13.70;76.70
33863;DHT22;20158;51.436;-2.742;2023-02-18T08:21:26;13.70;76.70
33863;DHT22;20158;51.436;-2.742;2023-02-18T08:23:53;13.60;76.50
33863;DHT22;20158;51.436;-2.742;2023-02-18T08:26:19;13.60;76.50
33863;DHT22;20158;51.436;-2.742;2023-02-18T08:28:46;13.60;76.50
33863;DHT22;20158;51.436;-2.742;2023-02-18T08:31:19;13.60;76.60
33863;DHT22;20158;51.436;-2.742;2023-02-18T08:33:45;13.60;76.70
33863;DHT22;20158;51.436;-2.742;2023-02-18T08:36:12;13.60;76.70
33863;DHT22;20158;51.436;-2.742;2023-02-18T08:38:37;13.60;76.70
33863;DHT22;20158;51.436;-2.742;2023-02-18T08:41:06;13.60;76.70
33863;DHT22;20158;51.436;-2.742;2023-02-18T08:43:32;13.50;76.50
33863;DHT22;20158;51.436;-2.742;2023-02-18T08:45:58;13.60;76.60
33863;DHT22;20158;51.436;-2.742;2023-02-18T08:48:24;13.50;76.40
33863;DHT22;20158;51.436;-2.742;2023-02-18T08:50:50;13.50;76.40
33863;DHT22;20158;51.436;-2.742;2023-02-18T08:53:17;13.40;76.20
33863;DHT22;20158;51.436;-2.742;2023-02-18T08:55:43;13.40;76.20
33863;DHT22;20158;51.436;-2.742;2023-02-18T08:58:09;13.40;76.20
33863;DHT22;20158;51.436;-2.742;2023-02-18T09:00:36;13.40;76.20
33863;DHT22;20158;51.436;-2.742;2023-02-18T09:03:03;13.40;76.20
33863;DHT22;20158;51.436;-2.742;2023-02-18T09:05:29;13.40;76.20
33863;DHT22;20158;51.436;-2.742;2023-02-18T09:07:55;13.40;76.10
33863;DHT22;20158;51.436;-2.742;2023-02-18T09:10:21;13.40;76.10
33863;DHT22;20158;51.436;-2.742;2023-02-18T09:12:47;13.40;76.20
33863;DHT22;20158;51.436;-2.742;2023-02-18T09:15:13;13.40;76.10
33863;DHT22;20158;51.436;-2.742;2023-02-18T09:17:39;13.40;76.10
33863;DHT22;20158;51.436;-2.742;2023-02-18T09:20:06;13.40;76.00
33863;DHT22;20158;51.436;-2.742;2023-02-18T09:22:32;13.40;76.00
33863;DHT22;20158;51.436;-2.742;2023-02-18T09:24:58;13.40;76.00
33863;DHT22;20158;51.436;-2.742;2023-02-18T09:27:24;13.40;75.90
33863;DHT22;20158;51.436;-2.742;2023-02-18T09:29:50;13.40;75.90
33863;DHT22;20158;51.436;-2.742;2023-02-18T09:32:16;13.40;75.90
33863;DHT22;20158;51.436;-2.742;2023-02-18T09:34:43;13.30;75.70
33863;DHT22;20158;51.436;-2.742;2023-02-18T09:37:10;13.40;75.80
33863;DHT22;20158;51.436;-2.742;2023-02-18T09:39:36;13.40;75.80
33863;DHT22;20158;51.436;-2.742;2023-02-18T09:42:09;13.40;75.80
33863;DHT22;20158;51.436;-2.742;2023-02-18T09:44:42;13.40;75.80
33863;DHT22;20158;51.436;-2.742;2023-02-18T09:49:37;13.40;75.70
33863;DHT22;20158;51.436;-2.742;2023-02-18T09:52:18;13.40;75.60
33863;DHT22;20158;51.436;-2.742;2023-02-18T09:54:45;13.40;75.60
33863;DHT22;20158;51.436;-2.742;2023-02-18T09:57:26;13.40;75.60
33863;DHT22;20158;51.436;-2.742;2023-02-18T10:00:04;13.40;75.70
33863;DHT22;20158;51.436;-2.742;2023-02-18T10:02:39;13.40;75.60
33863;DHT22;20158;51.436;-2.742;2023-02-18T10:05:06;13.40;75.70
33863;DHT22;20158;51.436;-2.742;2023-02-18T10:07:38;13.40;75.60
33863;DHT22;20158;51.436;-2.742;2023-02-18T10:10:37;13.50;75.80
33863;DHT22;20158;51.436;-2.742;2023-02-18T10:13:03;13.40;75.50
33863;DHT22;20158;51.436;-2.742;2023-02-18T10:15:31;13.50;75.60
33863;DHT22;20158;51.436;-2.742;2023-02-18T10:17:58;13.60;75.70
33863;DHT22;20158;51.436;-2.742;2023-02-18T10:20:28;13.60;75.60
33863;DHT22;20158;51.436;-2.742;2023-02-18T10:22:57;13.70;75.70
33863;DHT22;20158;51.436;-2.742;2023-02-18T10:25:25;13.70;75.60
33863;DHT22;20158;51.436;-2.742;2023-02-18T10:27:52;13.80;75.60
33863;DHT22;20158;51.436;-2.742;2023-02-18T10:30:34;13.80;75.50
33863;DHT22;20158;51.436;-2.742;2023-02-18T10:36:01;13.90;75.50
33863;DHT22;20158;51.436;-2.742;2023-02-18T10:52:13;14.20;75.40
33863;DHT22;20158;51.436;-2.742;2023-02-18T10:55:11;14.20;75.30
33863;DHT22;20158;51.436;-2.742;2023-02-18T10:57:49;14.20;75.20
33863;DHT22;20158;51.436;-2.742;2023-02-18T11:00:26;14.30;75.30
33863;DHT22;20158;51.436;-2.742;2023-02-18T11:03:20;14.40;75.40
33863;DHT22;20158;51.436;-2.742;2023-02-18T11:05:49;14.40;75.20
33863;DHT22;20158;51.436;-2.742;2023-02-18T11:08:21;14.40;75.10
33863;DHT22;20158;51.436;-2.742;2023-02-18T11:10:48;14.60;75.40
33863;DHT22;20158;51.436;-2.742;2023-02-18T11:13:22;14.70;75.30
33863;DHT22;20158;51.436;-2.742;2023-02-18T11:18:36;14.80;75.10
33863;DHT22;20158;51.436;-2.742;2023-02-18T11:21:50;14.80;74.90
33863;DHT22;20158;51.436;-2.742;2023-02-18T11:23:53;14.90;75.00
33863;DHT22;20158;51.436;-2.742;2023-02-18T11:26:31;14.90;74.80
33863;DHT22;20158;51.436;-2.742;2023-02-18T11:29:02;15.00;74.80
33863;DHT22;20158;51.436;-2.742;2023-02-18T11:31:45;15.10;74.90
33863;DHT22;20158;51.436;-2.742;2023-02-18T11:34:23;15.10;74.70
33863;DHT22;20158;51.436;-2.742;2023-02-18T11:36:51;15.20;74.70
33863;DHT22;20158;51.436;-2.742;2023-02-18T11:39:23;15.20;74.60
33863;DHT22;20158;51.436;-2.742;2023-02-18T11:44:36;15.30;74.70
33863;DHT22;20158;51.436;-2.742;2023-02-18T11:47:27;15.30;74.60
33863;DHT22;20158;51.436;-2.742;2023-02-18T11:52:37;15.40;74.40
33863;DHT22;20158;51.436;-2.742;2023-02-18T11:57:42;15.50;74.30
33863;DHT22;20158;51.436;-2.742;2023-02-18T12:00:23;15.60;74.40
33863;DHT22;20158;51.436;-2.742;2023-02-18T12:02:51;15.60;74.30
33863;DHT22;20158;51.436;-2.742;2023-02-18T12:05:24;15.60;74.20
33863;DHT22;20158;51.436;-2.742;2023-02-18T12:07:57;15.60;74.10
33863;DHT22;20158;51.436;-2.742;2023-02-18T12:10:42;15.60;74.10
33863;DHT22;20158;51.436;-2.742;2023-02-18T12:19:08;15.80;74.10
33863;DHT22;20158;51.436;-2.742;2023-02-18T12:35:55;15.90;73.60
33863;DHT22;20158;51.436;-2.742;2023-02-18T12:41:28;16.00;73.70
33863;DHT22;20158;51.436;-2.742;2023-02-18T12:50:07;16.10;73.40
33863;DHT22;20158;51.436;-2.742;2023-02-18T12:53:00;16.20;73.50
33863;DHT22;20158;51.436;-2.742;2023-02-18T13:12:42;16.40;72.60
33863;DHT22;20158;51.436;-2.742;2023-02-18T13:15:22;16.30;72.40
33863;DHT22;20158;51.436;-2.742;2023-02-18T13:17:50;16.20;72.40
33863;DHT22;20158;51.436;-2.742;2023-02-18T13:22:59;16.20;72.30
33863;DHT22;20158;51.436;-2.742;2023-02-18T13:25:26;16.30;72.40
33863;DHT22;20158;51.436;-2.742;2023-02-18T13:33:19;16.20;71.90
33863;DHT22;20158;51.436;-2.742;2023-02-18T13:35:57;16.20;71.90
33863;DHT22;20158;51.436;-2.742;2023-02-18T13:41:02;16.10;71.80
33863;DHT22;20158;51.436;-2.742;2023-02-18T13:43:31;16.20;71.90
33863;DHT22;20158;51.436;-2.742;2023-02-18T13:51:08;16.40;71.70
33863;DHT22;20158;51.436;-2.742;2023-02-18T13:53:37;16.40;71.40
33863;DHT22;20158;51.436;-2.742;2023-02-18T13:58:51;16.50;71.30
33863;DHT22;20158;51.436;-2.742;2023-02-18T14:01:22;16.50;71.20
33863;DHT22;20158;51.436;-2.742;2023-02-18T14:03:52;16.60;71.20
33863;DHT22;20158;51.436;-2.742;2023-02-18T14:06:31;16.60;71.10
33863;DHT22;20158;51.436;-2.742;2023-02-18T14:11:55;16.60;70.70
33863;DHT22;20158;51.436;-2.742;2023-02-18T14:19:55;16.30;70.50
33863;DHT22;20158;51.436;-2.742;2023-02-18T14:27:39;16.00;71.00
33863;DHT22;20158;51.436;-2.742;2023-02-18T14:30:28;16.00;70.60
33863;DHT22;20158;51.436;-2.742;2023-02-18T14:32:59;15.90;70.40
33863;DHT22;20158;51.436;-2.742;2023-02-18T14:35:51;15.80;70.30
33863;DHT22;20158;51.436;-2.742;2023-02-18T14:38:32;15.80;70.30
33863;DHT22;20158;51.436;-2.742;2023-02-18T14:41:20;15.70;70.30
33863;DHT22;20158;51.436;-2.742;2023-02-18T14:49:48;15.60;70.20
33863;DHT22;20158;51.436;-2.742;2023-02-18T14:52:30;15.60;70.30
33863;DHT22;20158;51.436;-2.742;2023-02-18T14:54:57;15.50;70.30
33863;DHT22;20158;51.436;-2.742;2023-02-18T14:57:38;15.40;70.30
33863;DHT22;20158;51.436;-2.742;2023-02-18T15:00:06;15.40;70.90
33863;DHT22;20158;51.436;-2.742;2023-02-18T15:02:38;15.40;70.50
33863;DHT22;20158;51.436;-2.742;2023-02-18T15:05:30;15.30;70.40
33863;DHT22;20158;51.436;-2.742;2023-02-18T15:08:00;15.30;70.50
33863;DHT22;20158;51.436;-2.742;2023-02-18T15:13:02;15.10;70.40
33863;DHT22;20158;51.436;-2.742;2023-02-18T15:15:28;15.10;70.60
33863;DHT22;20158;51.436;-2.742;2023-02-18T15:17:54;15.00;70.60
33863;DHT22;20158;51.436;-2.742;2023-02-18T15:20:22;15.00;70.60
33863;DHT22;20158;51.436;-2.742;2023-02-18T15:22:48;14.90;70.60
33863;DHT22;20158;51.436;-2.742;2023-02-18T15:25:15;14.80;70.50
33863;DHT22;20158;51.436;-2.742;2023-02-18T15:27:43;14.80;70.60
33863;DHT22;20158;51.436;-2.742;2023-02-18T15:30:28;14.80;70.60
33863;DHT22;20158;51.436;-2.742;2023-02-18T15:32:58;14.70;70.50
33863;DHT22;20158;51.436;-2.742;2023-02-18T15:35:31;14.70;70.60
33863;DHT22;20158;51.436;-2.742;2023-02-18T15:37:59;14.70;71.20
33863;DHT22;20158;51.436;-2.742;2023-02-18T15:40:34;14.70;70.70
33863;DHT22;20158;51.436;-2.742;2023-02-18T15:43:03;14.60;70.50
33863;DHT22;20158;51.436;-2.742;2023-02-18T15:45:31;14.60;70.60
33863;DHT22;20158;51.436;-2.742;2023-02-18T15:47:59;14.50;70.40
33863;DHT22;20158;51.436;-2.742;2023-02-18T15:50:37;14.50;70.50
33863;DHT22;20158;51.436;-2.742;2023-02-18T15:53:14;14.40;70.40
33863;DHT22;20158;51.436;-2.742;2023-02-18T15:55:45;14.40;70.50
33863;DHT22;20158;51.436;-2.742;2023-02-18T15:58:13;14.40;70.60
33863;DHT22;20158;51.436;-2.742;2023-02-18T16:00:48;14.30;70.50
33863;DHT22;20158;51.436;-2.742;2023-02-18T16:05:45;14.20;70.50
33863;DHT22;20158;51.436;-2.742;2023-02-18T16:08:26;14.20;70.60
33863;DHT22;20158;51.436;-2.742;2023-02-18T16:13:20;14.20;70.70
33863;DHT22;20158;51.436;-2.742;2023-02-18T16:15:49;14.30;70.90
33863;DHT22;20158;51.436;-2.742;2023-02-18T16:18:30;14.30;70.90
33863;DHT22;20158;51.436;-2.742;2023-02-18T16:23:42;14.30;70.80
33863;DHT22;20158;51.436;-2.742;2023-02-18T16:26:20;14.30;70.90
33863;DHT22;20158;51.436;-2.742;2023-02-18T16:28:50;14.40;71.60
33863;DHT22;20158;51.436;-2.742;2023-02-18T16:31:16;14.40;71.10
33863;DHT22;20158;51.436;-2.742;2023-02-18T16:33:42;14.30;71.10
33863;DHT22;20158;51.436;-2.742;2023-02-18T16:36:15;14.40;71.50
33863;DHT22;20158;51.436;-2.742;2023-02-18T16:38:43;14.40;71.60
33863;DHT22;20158;51.436;-2.742;2023-02-18T16:41:13;14.30;71.50
33863;DHT22;20158;51.436;-2.742;2023-02-18T16:43:40;14.30;71.50
33863;DHT22;20158;51.436;-2.742;2023-02-18T16:46:14;14.30;71.60
33863;DHT22;20158;51.436;-2.742;2023-02-18T16:48:43;14.30;71.70
33863;DHT22;20158;51.436;-2.742;2023-02-18T16:51:11;14.30;71.70
33863;DHT22;20158;51.436;-2.742;2023-02-18T16:53:38;14.20;71.60
33863;DHT22;20158;51.436;-2.742;2023-02-18T16:56:05;14.20;72.20
33863;DHT22;20158;51.436;-2.742;2023-02-18T16:58:31;14.10;71.60
33863;DHT22;20158;51.436;-2.742;2023-02-18T17:00:57;14.10;71.60
33863;DHT22;20158;51.436;-2.742;2023-02-18T17:03:23;14.10;71.70
33863;DHT22;20158;51.436;-2.742;2023-02-18T17:05:49;14.10;71.80
33863;DHT22;20158;51.436;-2.742;2023-02-18T17:08:19;14.00;71.60
33863;DHT22;20158;51.436;-2.742;2023-02-18T17:10:53;14.00;71.70
33863;DHT22;20158;51.436;-2.742;2023-02-18T17:13:22;14.00;71.70
33863;DHT22;20158;51.436;-2.742;2023-02-18T17:15:50;14.00;71.90
33863;DHT22;20158;51.436;-2.742;2023-02-18T17:18:17;13.90;71.90
33863;DHT22;20158;51.436;-2.742;2023-02-18T17:20:43;13.90;72.00
33863;DHT22;20158;51.436;-2.742;2023-02-18T17:23:14;13.90;72.00
33863;DHT22;20158;51.436;-2.742;2023-02-18T17:25:41;13.90;72.20
33863;DHT22;20158;51.436;-2.742;2023-02-18T17:28:07;13.90;72.20
33863;DHT22;20158;51.436;-2.742;2023-02-18T17:30:38;13.80;72.00
33863;DHT22;20158;51.436;-2.742;2023-02-18T17:33:05;13.80;72.10
33863;DHT22;20158;51.436;-2.742;2023-02-18T17:35:32;13.70;72.00
33863;DHT22;20158;51.436;-2.742;2023-02-18T17:37:58;13.70;72.00
33863;DHT22;20158;51.436;-2.742;2023-02-18T17:40:26;13.70;72.10
33863;DHT22;20158;51.436;-2.742;2023-02-18T17:42:53;13.70;72.20
33863;DHT22;20158;51.436;-2.742;2023-02-18T17:45:42;13.70;72.20
33863;DHT22;20158;51.436;-2.742;2023-02-18T17:48:09;13.60;72.10
33863;DHT22;20158;51.436;-2.742;2023-02-18T17:50:35;13.60;72.10
33863;DHT22;20158;51.436;-2.742;2023-02-18T17:53:01;13.60;72.20
33863;DHT22;20158;51.436;-2.742;2023-02-18T17:55:30;13.60;72.30
33863;DHT22;20158;51.436;-2.742;2023-02-18T17:57:57;13.50;72.80
33863;DHT22;20158;51.436;-2.742;2023-02-18T18:00:32;13.50;72.20
33863;DHT22;20158;51.436;-2.742;2023-02-18T18:02:59;13.50;72.30
33863;DHT22;20158;51.436;-2.742;2023-02-18T18:07:55;13.50;73.40
33863;DHT22;20158;51.436;-2.742;2023-02-18T18:10:23;13.60;73.90
33863;DHT22;20158;51.436;-2.742;2023-02-18T18:12:53;13.70;74.20
33863;DHT22;20158;51.436;-2.742;2023-02-18T18:15:32;13.70;74.30
33863;DHT22;20158;51.436;-2.742;2023-02-18T18:18:01;13.80;74.70
33863;DHT22;20158;51.436;-2.742;2023-02-18T18:20:29;13.70;75.10